Time;durP1;ratioP1;P1;durP2;ratioP2;P2;SDS_P1;SDS_P2;PMS_P1;PMS_P2;Temp;Humidity;BMP_temperature;BMP_pressure;BME280_temperature;BME280_humidity;BME280_pressure;Samples;Min_cycle;Max_cycle;Signal;HPM_P1;HPM_P2
2020/12/03 00:00:54;;;;;;;46.02;24.67;;;;;;;-2.53;71.93;96993.20;1757586;80;21553;-56
2020/12/03 00:03:36;;;;;;;40.08;23.27;;;;;;;-2.72;72.13;96988.76;1745416;82;21348;-56
2020/12/03 00:06:19;;;;;;;43.65;24.50;;;;;;;-2.73;72.44;96994.72;1747860;80;21235;-56
2020/12/03 00:08:57;;;;;;;46.53;24.30;;;;;;;-2.62;72.57;97004.30;1761814;80;21093;-56
2020/12/03 00:11:30;;;;;;;39.75;18.87;;;;;;;-2.50;72.09;97006.28;1743610;80;21086;-56
2020/12/03 00:13:57;;;;;;;38.38;21.90;;;;;;;-2.51;72.18;97010.97;1739230;81;21082;-55
2020/12/03 00:16:29;;;;;;;43.30;23.03;;;;;;;-2.55;72.01;97006.36;1740596;82;21265;-56
2020/12/03 00:18:56;;;;;;;45.40;24.70;;;;;;;-2.63;72.12;97010.25;1736347;81;21228;-56
2020/12/03 00:21:44;;;;;;;48.10;25.43;;;;;;;-2.73;72.42;97012.50;1717392;83;21078;-56
2020/12/03 00:24:16;;;;;;;37.65;20.48;;;;;;;-2.64;72.62;97012.81;1752810;81;21173;-55
2020/12/03 00:26:46;;;;;;;42.50;23.52;;;;;;;-2.52;72.22;97015.19;1745265;81;21599;-56
2020/12/03 00:29:13;;;;;;;39.90;20.65;;;;;;;-2.63;71.96;97025.50;1742574;81;21504;-55
2020/12/03 00:31:45;;;;;;;39.85;21.57;;;;;;;-2.66;72.16;97024.70;1736962;81;21160;-55
2020/12/03 00:34:13;;;;;;;44.88;23.83;;;;;;;-2.71;71.85;97016.30;1755256;81;21064;-56
2020/12/03 00:36:40;;;;;;;34.55;18.12;;;;;;;-2.77;72.06;97008.29;1743120;81;21159;-56
2020/12/03 00:39:11;;;;;;;32.75;19.05;;;;;;;-2.66;72.19;96997.59;1741279;81;21656;-54
2020/12/03 00:41:38;;;;;;;39.63;20.68;;;;;;;-2.54;71.90;97006.75;1741641;81;21351;-56
2020/12/03 00:44:06;;;;;;;40.17;21.48;;;;;;;-2.56;71.66;97012.30;1708706;82;21089;-56
2020/12/03 00:46:34;;;;;;;37.17;21.45;;;;;;;-2.59;71.82;97010.62;1715566;82;21483;-55
2020/12/03 00:49:02;;;;;;;41.75;22.52;;;;;;;-2.56;71.55;97008.48;1711919;82;21170;-54
2020/12/03 00:51:30;;;;;;;43.98;23.40;;;;;;;-2.64;71.87;97005.19;1750638;80;21137;-54
2020/12/03 00:53:58;;;;;;;39.90;21.57;;;;;;;-2.57;71.86;97002.14;1733073;81;21202;-56
2020/12/03 00:56:26;;;;;;;41.08;22.75;;;;;;;-2.57;71.59;97004.25;1739862;82;21804;-56
2020/12/03 00:58:55;;;;;;;44.05;22.32;;;;;;;-2.70;71.91;97007.80;1737902;81;21506;-55
2020/12/03 01:01:22;;;;;;;42.80;21.27;;;;;;;-2.66;72.01;97004.38;1745265;81;21093;-55
2020/12/03 01:03:51;;;;;;;44.58;22.65;;;;;;;-2.57;71.66;97001.70;1745008;81;21105;-56
2020/12/03 01:06:19;;;;;;;32.38;17.85;;;;;;;-2.67;71.69;97001.41;1733245;81;21371;-56
2020/12/03 01:08:46;;;;;;;41.37;22.43;;;;;;;-2.80;72.05;96996.48;1737770;81;21093;-55
2020/12/03 01:11:14;;;;;;;36.17;19.90;;;;;;;-2.97;72.28;96983.95;1733238;81;21661;-55
2020/12/03 01:13:42;;;;;;;38.80;20.50;;;;;;;-3.00;72.67;96981.88;1726319;81;21127;-56
2020/12/03 01:16:18;;;;;;;42.03;22.45;;;;;;;-3.02;72.72;96978.09;1754372;81;21123;-56
2020/12/03 01:18:46;;;;;;;45.35;22.95;;;;;;;-3.08;72.95;96986.19;1712418;82;21437;-56
2020/12/03 01:21:21;;;;;;;33.92;18.07;;;;;;;-3.09;73.16;96976.48;1689321;83;21209;-56
2020/12/03 01:23:50;;;;;;;38.28;20.80;;;;;;;-2.96;73.14;96974.22;1705402;83;21174;-55
2020/12/03 01:26:19;;;;;;;40.23;21.57;;;;;;;-2.95;72.82;96978.86;1747615;82;21605;-55
2020/12/03 01:28:47;;;;;;;35.68;18.48;;;;;;;-2.96;72.92;96965.33;1708376;83;21094;-56
2020/12/03 01:31:14;;;;;;;42.85;23.15;;;;;;;-2.94;72.82;96962.78;1721373;82;21399;-56
2020/12/03 01:33:44;;;;;;;38.33;20.02;;;;;;;-2.98;72.73;96969.59;1734498;82;21836;-55
2020/12/03 01:36:13;;;;;;;36.15;20.43;;;;;;;-3.01;72.84;96967.08;1740288;82;21152;-55
2020/12/03 01:38:42;;;;;;;39.75;22.05;;;;;;;-2.99;72.68;96965.80;1745160;82;21152;-56
2020/12/03 01:41:09;;;;;;;40.43;21.45;;;;;;;-2.98;72.55;96961.97;1747368;82;21137;-56
2020/12/03 01:43:42;;;;;;;38.33;22.22;;;;;;;-2.94;72.55;96959.37;1714802;83;21247;-56
2020/12/03 01:46:09;;;;;;;42.65;22.90;;;;;;;-2.84;72.54;96968.59;1695704;83;21098;-56
2020/12/03 01:48:55;;;;;;;36.25;19.55;;;;;;;-2.75;72.33;96962.56;1733255;82;21526;-54
2020/12/03 01:51:39;;;;;;;36.83;20.48;;;;;;;-2.65;71.87;96959.04;1711378;83;21094;-55
2020/12/03 01:54:11;;;;;;;36.75;20.10;;;;;;;-2.76;71.56;96964.27;1729706;82;21061;-56
2020/12/03 01:57:02;;;;;;;45.00;22.70;;;;;;;-2.92;71.74;96965.30;1735881;82;21449;-55
2020/12/03 01:59:53;;;;;;;37.38;20.45;;;;;;;-2.98;72.14;96960.70;1694663;82;21881;-55
2020/12/03 02:02:20;;;;;;;41.05;23.18;;;;;;;-2.80;71.92;96959.66;1714592;82;21133;-56
2020/12/03 02:05:12;;;;;;;39.15;21.40;;;;;;;-2.64;71.55;96965.81;1717181;83;21078;-56
2020/12/03 02:07:41;;;;;;;40.00;22.00;;;;;;;-2.49;71.06;96964.34;1735277;82;21113;-57
2020/12/03 02:10:12;;;;;;;41.20;21.77;;;;;;;-2.38;70.62;96973.55;1739529;82;21140;-56
2020/12/03 02:12:39;;;;;;;35.23;19.02;;;;;;;-2.22;69.71;96971.21;1737538;82;21152;-56
2020/12/03 02:15:09;;;;;;;41.08;20.75;;;;;;;-2.22;69.71;96971.21;1726010;82;21157;-56
2020/12/03 02:17:39;;;;;;;33.92;19.27;;;;;;;-2.23;69.55;96970.79;1730466;82;21097;-57
2020/12/03 02:20:10;;;;;;;33.00;19.27;;;;;;;-2.26;69.15;96960.66;1731777;82;21086;-56
2020/12/03 02:22:39;;;;;;;32.83;17.70;;;;;;;-2.37;69.22;96959.52;1738000;82;21659;-56
2020/12/03 02:25:08;;;;;;;35.00;20.68;;;;;;;-2.55;69.41;96951.73;1734623;82;21089;-56
2020/12/03 02:27:37;;;;;;;33.00;18.07;;;;;;;-2.74;69.68;96949.02;1735855;82;21141;-56
2020/12/03 02:30:07;;;;;;;36.77;19.23;;;;;;;-2.93;70.14;96961.90;1735832;82;21078;-55
2020/12/03 02:32:35;;;;;;;39.18;20.17;;;;;;;-3.09;70.70;96952.36;1731646;82;21090;-56
2020/12/03 02:35:05;;;;;;;32.00;16.55;;;;;;;-3.31;71.15;96945.81;1732607;82;21391;-55
2020/12/03 02:37:34;;;;;;;30.77;17.30;;;;;;;-3.52;71.95;96942.61;1736195;82;21157;-56
2020/12/03 02:40:04;;;;;;;35.68;19.35;;;;;;;-3.70;72.67;96947.02;1735172;82;21125;-56
2020/12/03 02:42:31;;;;;;;34.55;19.60;;;;;;;-3.84;73.07;96941.64;1723931;82;21164;-55
2020/12/03 02:44:59;;;;;;;37.13;19.02;;;;;;;-4.00;73.42;96944.70;1732442;82;21129;-56
2020/12/03 02:47:26;;;;;;;32.80;17.85;;;;;;;-4.03;73.89;96940.92;1742487;81;22101;-55
2020/12/03 02:49:53;;;;;;;31.87;17.32;;;;;;;-3.99;74.02;96932.46;1731972;82;21117;-55
2020/12/03 02:52:23;;;;;;;;;;;;;;;-3.99;73.80;96931.19;1743690;82;21090;-55
2020/12/03 02:54:53;;;;;;;37.78;20.02;;;;;;;-4.05;73.86;96937.13;1734213;82;20481;-55
2020/12/03 02:57:21;;;;;;;37.93;19.33;;;;;;;-4.11;74.02;96930.86;1739657;82;21557;-55
2020/12/03 02:59:49;;;;;;;32.88;18.62;;;;;;;-4.11;74.02;96930.86;1735765;82;21845;-54
2020/12/03 03:02:16;;;;;;;33.63;18.85;;;;;;;-4.01;73.90;96938.81;1736722;82;21117;-54
2020/12/03 03:04:45;;;;;;;33.63;18.23;;;;;;;-3.87;73.64;96946.30;1735180;82;21073;-54
2020/12/03 03:07:12;;;;;;;32.98;17.32;;;;;;;-3.78;73.45;96944.97;1726744;82;21176;-54
2020/12/03 03:09:40;;;;;;;34.63;19.40;;;;;;;-3.74;73.24;96946.61;1739535;82;21109;-54
2020/12/03 03:12:08;;;;;;;35.52;19.25;;;;;;;-3.81;73.47;96950.05;1723666;82;21213;-55
2020/12/03 03:14:36;;;;;;;37.80;19.85;;;;;;;-3.68;73.48;96951.21;1737730;82;21101;-54
2020/12/03 03:17:04;;;;;;;32.20;17.95;;;;;;;-3.49;73.31;96954.00;1734428;82;21098;-55
2020/12/03 03:19:31;;;;;;;35.35;18.35;;;;;;;-3.27;72.89;96959.73;1742286;82;21612;-55
2020/12/03 03:22:00;;;;;;;33.42;19.45;;;;;;;-3.09;72.43;96964.19;1740801;81;21098;-54
2020/12/03 03:24:28;;;;;;;;;;;;;;;-2.99;71.59;96955.64;1754088;81;21275;-54
2020/12/03 03:26:56;;;;;;;26.75;14.75;;;;;;;-2.98;71.17;96957.30;1739957;81;20247;-55
2020/12/03 03:29:24;;;;;;;27.25;16.65;;;;;;;-3.12;70.76;96954.92;1736008;81;21081;-54
2020/12/03 03:31:53;;;;;;;26.68;13.70;;;;;;;-3.34;70.83;96951.34;1733271;81;21132;-55
2020/12/03 03:34:21;;;;;;;30.50;17.60;;;;;;;-3.54;70.94;96949.41;1740961;81;21137;-55
2020/12/03 03:36:49;;;;;;;32.10;18.17;;;;;;;-3.78;71.07;96947.94;1755577;81;21581;-54
2020/12/03 03:39:21;;;;;;;30.20;16.95;;;;;;;-3.90;71.60;96945.05;1745150;81;21597;-54
2020/12/03 03:41:51;;;;;;;28.98;15.63;;;;;;;-3.91;71.87;96955.62;1754576;81;21589;-54
2020/12/03 03:44:18;;;;;;;30.62;16.02;;;;;;;-3.87;71.73;96958.14;1760862;81;21168;-55
2020/12/03 03:46:47;;;;;;;30.65;17.07;;;;;;;-3.86;71.46;96950.52;1757607;81;21129;-55
2020/12/03 03:49:15;;;;;;;28.17;15.20;;;;;;;-3.77;71.14;96950.43;1749134;81;21372;-55
2020/12/03 03:51:42;;;;;;;28.38;16.35;;;;;;;-3.70;70.48;96947.02;1740653;81;21075;-54
2020/12/03 03:54:10;;;;;;;31.48;16.10;;;;;;;-3.77;70.34;96951.70;1762190;81;21110;-54
2020/12/03 03:56:38;;;;;;;30.17;16.52;;;;;;;-3.91;70.36;96955.62;1749575;81;22013;-55
2020/12/03 03:59:06;;;;;;;27.95;15.28;;;;;;;-3.94;70.62;96963.25;1744826;81;21490;-56
2020/12/03 04:01:34;;;;;;;34.03;17.67;;;;;;;-3.90;70.61;96948.45;1747778;81;21375;-55
2020/12/03 04:04:01;;;;;;;32.55;17.23;;;;;;;-3.89;70.53;96939.97;1744349;81;21158;-55
2020/12/03 04:06:29;;;;;;;33.13;17.42;;;;;;;-3.87;70.58;96939.95;1747105;81;21151;-54
2020/12/03 04:08:58;;;;;;;23.57;13.70;;;;;;;-3.87;70.94;96942.93;1736587;81;21156;-55
2020/12/03 04:11:27;;;;;;;26.30;13.88;;;;;;;-3.81;71.76;96936.55;1742162;81;21516;-54
2020/12/03 04:13:55;;;;;;;32.63;15.97;;;;;;;-3.81;71.93;96928.50;1759824;81;21550;-55
2020/12/03 04:16:22;;;;;;;29.12;16.65;;;;;;;-3.87;72.42;96923.91;1756732;80;22189;-53
2020/12/03 04:18:50;;;;;;;32.55;16.20;;;;;;;-3.87;72.89;96931.08;1740285;80;21128;-55
2020/12/03 04:21:18;;;;;;;27.95;15.13;;;;;;;-3.90;73.87;96929.84;1758306;81;21193;-54
2020/12/03 04:23:45;;;;;;;28.45;15.40;;;;;;;-4.09;74.52;96928.72;1767118;81;21058;-54
2020/12/03 04:26:13;;;;;;;25.97;14.83;;;;;;;-4.22;74.96;96916.16;1753432;81;22787;-55
2020/12/03 04:28:41;;;;;;;25.55;13.62;;;;;;;-4.31;75.45;96913.23;1726615;81;21167;-55
2020/12/03 04:31:09;;;;;;;29.37;16.75;;;;;;;-4.33;75.95;96909.88;1759087;80;21202;-54
2020/12/03 04:33:37;;;;;;;27.90;16.65;;;;;;;-4.36;75.83;96917.50;1732411;81;21081;-54
2020/12/03 04:36:05;;;;;;;27.65;15.18;;;;;;;-4.29;75.91;96920.42;1725334;81;21085;-55
2020/12/03 04:38:33;;;;;;;32.17;16.77;;;;;;;-4.21;75.97;96916.14;1735236;81;21463;-54
2020/12/03 04:41:01;;;;;;;29.95;17.55;;;;;;;-4.08;75.68;96913.94;1731884;81;21613;-55
2020/12/03 04:43:37;;;;;;;33.90;18.55;;;;;;;-3.94;75.47;96918.05;1709959;81;21173;-55
2020/12/03 04:46:28;;;;;;;30.88;17.15;;;;;;;-3.83;75.12;96915.01;1727342;81;21046;-55
2020/12/03 04:49:24;;;;;;;30.97;17.77;;;;;;;-3.65;74.35;96914.00;1730082;81;21510;-57
2020/12/03 04:51:59;;;;;;;30.05;15.53;;;;;;;-3.53;73.43;96924.46;1711235;81;22262;-56
2020/12/03 04:54:49;;;;;;;33.25;17.95;;;;;;;-3.40;73.04;96923.48;1728923;81;21129;-55
2020/12/03 04:57:28;;;;;;;36.08;17.62;;;;;;;-3.24;72.64;96923.31;1733070;81;21121;-54
2020/12/03 05:00:21;;;;;;;29.85;16.75;;;;;;;-3.07;71.94;96923.16;1724736;81;21525;-55
2020/12/03 05:03:25;;;;;;;28.90;16.93;;;;;;;-2.93;71.49;96917.90;1730364;81;21129;-54
2020/12/03 05:06:14;;;;;;;35.65;18.40;;;;;;;-2.82;70.60;96927.06;1676801;83;21624;-54
2020/12/03 05:08:58;;;;;;;36.70;19.75;;;;;;;-2.89;70.18;96930.98;1729731;81;21172;-53
2020/12/03 05:11:42;;;;;;;26.60;15.40;;;;;;;-2.90;70.11;96930.13;1688262;81;21183;-55
2020/12/03 05:14:35;;;;;;;30.23;16.70;;;;;;;-2.77;69.72;96929.12;1732002;81;21165;-54
2020/12/03 05:17:44;;;;;;;30.02;16.95;;;;;;;-2.90;69.08;96928.03;1728990;81;21106;-54
2020/12/03 05:20:43;;;;;;;27.15;16.10;;;;;;;-3.16;69.33;96924.94;1731314;81;22480;-54
2020/12/03 05:23:18;;;;;;;28.38;17.00;;;;;;;-3.34;69.80;96931.05;1724045;81;21148;-55
2020/12/03 05:25:48;;;;;;;32.60;18.23;;;;;;;-3.33;70.14;96931.88;1727077;81;21498;-54
2020/12/03 05:28:32;;;;;;;34.35;17.52;;;;;;;-3.35;69.94;96925.54;1716964;83;21161;-54
2020/12/03 05:31:20;;;;;;;31.60;18.25;;;;;;;-3.45;69.91;96921.86;1704831;83;21629;-54
2020/12/03 05:33:47;;;;;;;28.80;16.62;;;;;;;-3.55;70.33;96926.18;1689688;83;21501;-53
2020/12/03 05:36:31;;;;;;;26.48;14.53;;;;;;;-3.59;70.31;96938.02;1746048;81;21224;-53
2020/12/03 05:39:00;;;;;;;31.82;16.80;;;;;;;-3.60;70.47;96938.03;1723871;81;21208;-54
2020/12/03 05:41:37;;;;;;;29.35;16.82;;;;;;;-3.61;70.52;96923.69;1684127;84;21125;-54
2020/12/03 05:44:42;;;;;;;26.48;16.23;;;;;;;-3.54;70.59;96918.96;1717567;83;21073;-54
2020/12/03 05:47:32;;;;;;;29.20;14.60;;;;;;;-3.42;70.36;96920.53;1718518;83;21605;-53
2020/12/03 05:50:04;;;;;;;27.05;15.55;;;;;;;-3.44;69.97;96924.35;1693876;84;21209;-54
2020/12/03 05:52:32;;;;;;;33.18;16.70;;;;;;;-3.55;70.05;96923.20;1694508;84;21138;-54
2020/12/03 05:55:09;;;;;;;29.90;15.78;;;;;;;-3.68;70.22;96922.05;1693702;84;21633;-55
2020/12/03 05:57:44;;;;;;;31.10;17.77;;;;;;;-3.70;70.36;96919.55;1703568;83;21073;-54
2020/12/03 06:00:20;;;;;;;35.35;16.60;;;;;;;-3.72;70.51;96919.56;1671492;84;21455;-55
2020/12/03 06:03:12;;;;;;;28.65;15.00;;;;;;;-3.63;70.42;96916.53;1698098;83;21180;-53
2020/12/03 06:06:29;;;;;;;34.00;17.05;;;;;;;-3.60;70.07;96913.94;1727827;81;21129;-53
2020/12/03 06:09:14;;;;;;;51.15;27.98;;;;;;;-3.54;70.24;96922.36;1691065;84;21089;-54
2020/12/03 06:11:58;;;;;;;38.38;22.90;;;;;;;-3.30;69.88;96926.77;1678543;84;21129;-53
2020/12/03 06:14:54;;;;;;;28.47;17.07;;;;;;;-3.18;69.11;96916.47;1669678;84;21516;-55
2020/12/03 06:17:50;;;;;;;29.85;16.95;;;;;;;-3.20;68.62;96922.00;1721980;83;21162;-54
2020/12/03 06:20:34;;;;;;;26.77;14.40;;;;;;;-3.26;68.22;96916.16;1724117;82;21600;-56
2020/12/03 06:23:13;;;;;;;22.73;14.50;;;;;;;-3.51;68.29;96916.40;1753960;81;21653;-54
2020/12/03 06:26:26;;;;;;;23.67;13.30;;;;;;;-3.78;68.62;96912.00;1751018;81;21532;-55
2020/12/03 06:29:36;;;;;;;27.67;15.15;;;;;;;-3.98;68.76;96905.84;1717354;82;21402;-54
2020/12/03 06:32:44;;;;;;;31.40;14.83;;;;;;;-4.16;69.35;96914.82;1801065;79;21069;-55
2020/12/03 06:35:29;;;;;;;19.20;10.03;;;;;;;-4.14;70.11;96914.41;1728651;79;21561;-53
2020/12/03 06:38:14;;;;;;;27.98;13.78;;;;;;;-3.97;70.17;96923.98;1814138;79;21058;-55
2020/12/03 06:40:47;;;;;;;20.43;11.08;;;;;;;-3.85;70.14;96918.39;1796134;79;21561;-54
2020/12/03 06:43:36;;;;;;;34.60;12.05;;;;;;;-3.71;70.00;96914.05;1782981;79;21198;-55
2020/12/03 06:46:44;;;;;;;21.37;11.12;;;;;;;-3.75;70.15;96911.11;1811150;79;21077;-54
2020/12/03 06:49:30;;;;;;;25.90;12.80;;;;;;;-3.78;70.49;96906.93;1813217;78;21116;-54
2020/12/03 06:52:15;;;;;;;22.20;12.15;;;;;;;-3.90;70.79;96899.01;1812326;78;21446;-53
2020/12/03 06:54:54;;;;;;;23.52;12.37;;;;;;;-3.91;71.04;96897.75;1792668;79;21147;-55
2020/12/03 06:57:42;;;;;;;22.02;11.85;;;;;;;-3.83;71.23;96904.87;1797468;79;21379;-55
2020/12/03 07:01:00;;;;;;;27.73;12.00;;;;;;;-3.72;71.12;96905.62;1805728;79;21146;-56
2020/12/03 07:04:05;;;;;;;24.85;12.68;;;;;;;-3.78;71.61;96904.39;1781723;80;21068;-56
2020/12/03 07:07:01;;;;;;;20.72;12.18;;;;;;;-3.79;71.93;96905.23;1752346;81;21077;-55
2020/12/03 07:10:14;;;;;;;23.83;11.75;;;;;;;-3.75;72.01;96899.30;1771184;81;21141;-55
2020/12/03 07:13:27;;;;;;;21.00;10.82;;;;;;;-3.77;72.07;96885.77;1780309;79;21341;-54
2020/12/03 07:16:48;;;;;;;20.30;11.50;;;;;;;-3.71;72.12;96891.23;1777914;79;21578;-54
2020/12/03 07:19:48;;;;;;;19.35;11.03;;;;;;;-3.61;72.10;96881.41;1775814;79;21628;-53
2020/12/03 07:22:23;;;;;;;21.93;10.63;;;;;;;-3.47;71.20;96887.62;1756094;79;21105;-53
2020/12/03 07:24:53;;;;;;;23.87;11.30;;;;;;;-3.52;71.40;96889.34;1788075;79;21046;-55
2020/12/03 07:27:49;;;;;;;28.40;11.48;;;;;;;-3.74;71.83;96878.14;1795217;79;21372;-55
2020/12/03 07:30:36;;;;;;;24.65;11.63;;;;;;;-3.86;72.31;96887.58;1795358;79;21156;-54
2020/12/03 07:33:21;;;;;;;20.82;11.28;;;;;;;-3.84;72.38;96885.86;1779773;79;21077;-54
2020/12/03 07:36:13;;;;;;;22.40;10.82;;;;;;;-3.70;72.41;96882.78;1790209;79;21565;-55
2020/12/03 07:38:54;;;;;;;26.55;11.90;;;;;;;-3.56;72.01;96875.85;1775872;79;21105;-55
2020/12/03 07:41:24;;;;;;;20.40;10.60;;;;;;;-3.39;71.91;96885.84;1802854;79;21160;-55
2020/12/03 07:44:06;;;;;;;18.15;10.32;;;;;;;-3.16;70.87;96876.70;1781918;80;21141;-56
2020/12/03 07:46:38;;;;;;;20.52;11.22;;;;;;;-3.22;70.97;96879.31;1749951;81;21101;-55
2020/12/03 07:49:05;;;;;;;21.95;11.65;;;;;;;-3.24;71.17;96887.38;1727073;82;21099;-55
2020/12/03 07:51:33;;;;;;;18.10;10.13;;;;;;;-3.21;71.38;96892.83;1727527;82;21073;-56
2020/12/03 07:54:21;;;;;;;19.00;10.53;;;;;;;-3.22;71.59;96894.53;1788925;79;21368;-55
2020/12/03 07:56:51;;;;;;;33.50;12.30;;;;;;;-3.24;71.83;96887.38;1785882;79;21161;-55
2020/12/03 07:59:29;;;;;;;17.50;9.75;;;;;;;-3.21;72.41;96878.46;1799203;79;21152;-55
2020/12/03 08:01:59;;;;;;;22.13;11.45;;;;;;;-3.13;72.65;96874.98;1744611;81;21654;-55
2020/12/03 08:04:35;;;;;;;20.10;9.75;;;;;;;-3.09;72.42;96872.80;1730492;81;21178;-55
2020/12/03 08:07:08;;;;;;;18.35;10.18;;;;;;;-2.94;72.35;96868.83;1783982;79;22179;-54
2020/12/03 08:09:44;;;;;;;18.00;9.63;;;;;;;-2.72;71.94;96863.47;1795643;79;21124;-55
2020/12/03 08:12:19;;;;;;;21.05;11.25;;;;;;;-2.67;72.06;96871.42;1789095;79;21142;-55
2020/12/03 08:14:59;;;;;;;24.40;12.18;;;;;;;-2.73;72.09;96860.09;1786700;79;21209;-55
2020/12/03 08:17:32;;;;;;;18.32;10.88;;;;;;;-2.84;73.07;96859.39;1785629;79;21557;-55
2020/12/03 08:20:08;;;;;;;24.30;11.85;;;;;;;-2.95;73.49;96856.98;1784597;79;21192;-55
2020/12/03 08:22:42;;;;;;;21.12;12.05;;;;;;;-2.95;73.92;96859.52;1795109;79;21681;-55
2020/12/03 08:25:15;;;;;;;29.30;12.45;;;;;;;-2.91;74.01;96852.70;1787072;79;21132;-55
2020/12/03 08:27:42;;;;;;;26.70;12.28;;;;;;;-2.89;74.25;96858.18;1801202;79;21140;-55
2020/12/03 08:30:37;;;;;;;26.97;11.68;;;;;;;-2.92;74.08;96853.14;1797041;79;21145;-55
2020/12/03 08:33:11;;;;;;;26.17;11.85;;;;;;;-2.87;74.59;96860.26;1798024;79;21200;-54
2020/12/03 08:35:40;;;;;;;32.95;11.63;;;;;;;-2.86;74.33;96867.44;1793611;79;21144;-55
2020/12/03 08:38:08;;;;;;;22.10;11.57;;;;;;;-2.93;74.43;96854.42;1795261;79;21598;-55
2020/12/03 08:40:38;;;;;;;23.12;10.82;;;;;;;-2.88;74.54;96858.59;1791125;79;21125;-56
2020/12/03 08:46:17;;;;;;;19.67;9.77;;;;;;;-2.44;73.60;96850.77;1880744;74;23987;-55
2020/12/03 08:48:27;;;;;;;18.45;10.15;;;;;;;-2.27;72.77;96849.26;1825958;77;21056;-55
2020/12/03 08:51:03;;;;;;;15.83;9.43;;;;;;;-2.17;71.73;96851.22;1836371;77;21265;-55
2020/12/03 08:53:32;;;;;;;15.70;10.23;;;;;;;-2.28;71.40;96843.75;1831744;77;21541;-54
2020/12/03 08:56:19;;;;;;;16.02;9.63;;;;;;;-2.42;71.77;96855.41;1768087;80;21117;-55
2020/12/03 08:59:05;;;;;;;15.95;10.03;;;;;;;-2.57;72.28;96840.81;1757981;81;21229;-56
2020/12/03 09:01:36;;;;;;;15.03;9.35;;;;;;;-2.63;72.62;96836.67;1762598;80;21073;-55
2020/12/03 09:04:03;;;;;;;16.70;9.35;;;;;;;-2.53;72.46;96837.35;1770570;80;21480;-55
2020/12/03 09:06:33;;;;;;;17.37;10.35;;;;;;;-2.43;71.97;96814.77;1761393;80;21139;-55
2020/12/03 09:09:04;;;;;;;19.75;10.28;;;;;;;-2.10;71.52;96815.92;1767308;80;21476;-55
2020/12/03 09:11:34;;;;;;;33.88;10.70;;;;;;;-1.52;70.69;96810.66;1804433;79;21210;-55
2020/12/03 09:14:02;;;;;;;20.92;10.80;;;;;;;-0.68;69.18;96805.52;1798070;79;21037;-56
2020/12/03 09:16:31;;;;;;;16.23;10.75;;;;;;;0.09;66.39;96811.34;1839551;77;21342;-56
2020/12/03 09:18:59;;;;;;;14.70;9.48;;;;;;;0.60;64.22;96814.30;1829743;77;21612;-56
2020/12/03 09:21:29;;;;;;;19.42;10.45;;;;;;;0.96;61.85;96800.92;1841580;77;21616;-56
2020/12/03 09:23:58;;;;;;;17.85;10.58;;;;;;;1.50;60.79;96796.77;1828337;77;21588;-56
2020/12/03 09:26:32;;;;;;;29.67;11.10;;;;;;;2.44;57.52;96786.45;1830041;77;21549;-53
2020/12/03 09:29:03;;;;;;;17.75;11.00;;;;;;;2.94;55.47;96778.22;1845481;77;21360;-56
2020/12/03 09:31:35;;;;;;;16.67;11.83;;;;;;;2.63;54.86;96782.35;1755801;80;22510;-55
2020/12/03 09:34:03;;;;;;;21.87;10.98;;;;;;;2.06;56.45;96784.30;1756429;81;21065;-56
2020/12/03 09:36:32;;;;;;;36.83;11.60;;;;;;;1.92;57.50;96780.91;1783504;79;21077;-56
2020/12/03 09:39:00;;;;;;;24.82;12.75;;;;;;;2.18;57.70;96770.25;1755869;79;21078;-55
2020/12/03 09:41:30;;;;;;;18.73;11.95;;;;;;;2.63;55.82;96785.34;1766878;80;21365;-55
2020/12/03 09:44:01;;;;;;;22.93;11.60;;;;;;;2.66;55.20;96769.41;1771921;79;21331;-55
2020/12/03 09:46:30;;;;;;;17.15;10.82;;;;;;;2.69;55.38;96768.47;1776646;79;21124;-57
2020/12/03 09:48:58;;;;;;;28.32;12.45;;;;;;;2.80;54.72;96779.17;1782182;79;21200;-57
2020/12/03 09:51:25;;;;;;;17.42;11.78;;;;;;;2.94;54.55;96773.52;1774351;79;21621;-55
2020/12/03 09:53:53;;;;;;;21.40;11.57;;;;;;;2.93;54.49;96777.00;1817834;78;21796;-55
2020/12/03 09:56:21;;;;;;;15.45;11.33;;;;;;;3.30;54.60;96767.44;1773340;79;21141;-55
2020/12/03 09:58:58;;;;;;;29.15;11.78;;;;;;;4.11;53.23;96776.66;1774071;79;21117;-56
2020/12/03 10:01:48;;;;;;;26.42;12.37;;;;;;;4.24;50.57;96761.53;1776997;79;21587;-57
2020/12/03 10:04:41;;;;;;;32.78;12.98;;;;;;;3.78;51.99;96753.18;1795309;79;21132;-56
2020/12/03 10:07:18;;;;;;;21.60;11.70;;;;;;;3.66;52.54;96745.08;1759417;80;22583;-57
2020/12/03 10:10:18;;;;;;;19.50;12.33;;;;;;;3.36;52.91;96739.45;1793068;78;21205;-56
2020/12/03 10:13:27;;;;;;;17.87;11.40;;;;;;;3.43;53.59;96728.50;1786680;78;21590;-55
2020/12/03 10:16:05;;;;;;;19.98;12.23;;;;;;;3.51;53.64;96723.90;1811519;78;21475;-55
2020/12/03 10:18:45;;;;;;;17.75;10.90;;;;;;;3.90;53.41;96714.19;1803236;79;21058;-56
2020/12/03 10:21:24;;;;;;;16.65;11.05;;;;;;;4.01;51.19;96709.44;1779921;78;23605;-57
2020/12/03 10:24:13;;;;;;;16.15;11.10;;;;;;;3.18;53.44;96711.97;1780147;80;21152;-55
2020/12/03 10:26:50;;;;;;;;;;;;;;;2.79;55.56;96706.19;1755392;81;21588;-56
2020/12/03 10:29:35;;;;;;;18.05;11.38;;;;;;;2.67;55.13;96693.40;1752755;81;20248;-55
2020/12/03 10:32:12;;;;;;;19.98;13.28;;;;;;;2.65;55.45;96690.03;1785471;80;21104;-57
2020/12/03 10:34:49;;;;;;;21.60;13.10;;;;;;;2.74;56.04;96682.02;1777864;80;21433;-56
2020/12/03 10:37:32;;;;;;;19.95;12.23;;;;;;;3.28;55.41;96689.73;1766447;81;21067;-56
2020/12/03 10:40:08;;;;;;;20.12;12.80;;;;;;;3.76;53.22;96687.80;1766546;81;21181;-56
2020/12/03 10:42:54;;;;;;;19.48;12.03;;;;;;;3.88;52.96;96680.02;1773845;79;22171;-56
2020/12/03 10:45:27;;;;;;;22.10;12.37;;;;;;;3.69;52.90;96678.70;1797917;79;21088;-57
2020/12/03 10:47:59;;;;;;;18.60;12.30;;;;;;;3.26;54.10;96686.86;1777153;79;21197;-56
2020/12/03 10:50:51;;;;;;;18.50;11.97;;;;;;;2.99;55.14;96679.34;1801180;79;21092;-56
2020/12/03 10:53:26;;;;;;;16.42;12.18;;;;;;;2.97;55.29;96677.75;1764303;81;21449;-56
2020/12/03 10:56:02;;;;;;;17.75;11.15;;;;;;;3.04;55.48;96661.22;1788000;80;21665;-55
2020/12/03 10:59:00;;;;;;;16.80;10.70;;;;;;;2.88;55.40;96663.11;1766594;79;21180;-57
2020/12/03 11:01:28;;;;;;;18.40;12.98;;;;;;;2.44;56.64;96657.11;1771133;79;21593;-55
2020/12/03 11:04:05;;;;;;;16.05;11.12;;;;;;;1.89;58.24;96665.03;1769110;79;22022;-56
2020/12/03 11:06:34;;;;;;;20.27;12.03;;;;;;;1.49;60.08;96674.06;1744149;80;21123;-55
2020/12/03 11:09:05;;;;;;;19.02;11.33;;;;;;;1.24;61.05;96673.59;1774489;79;21145;-56
2020/12/03 11:11:37;;;;;;;19.30;11.95;;;;;;;1.20;60.59;96677.11;1768143;79;21149;-54
2020/12/03 11:14:13;;;;;;;16.02;11.00;;;;;;;1.22;60.79;96659.58;1779657;79;21882;-56
2020/12/03 11:16:56;;;;;;;23.38;12.28;;;;;;;1.38;60.03;96652.25;1782882;79;21112;-55
2020/12/03 11:19:25;;;;;;;18.67;11.12;;;;;;;1.40;60.72;96656.86;1775820;79;21362;-55
2020/12/03 11:25:19;;;;;;;19.53;11.97;;;;;;;1.13;62.51;96656.02;1851851;76;25688;-55
2020/12/03 11:27:46;;;;;;;17.02;10.43;;;;;;;1.02;62.41;96644.02;1816324;77;21083;-56
2020/12/03 11:30:23;;;;;;;20.72;12.23;;;;;;;0.76;63.33;96644.41;1778186;79;21828;-56
2020/12/03 11:32:53;;;;;;;18.98;11.25;;;;;;;0.60;64.19;96640.66;1754030;81;21137;-57
2020/12/03 11:35:28;;;;;;;19.30;11.97;;;;;;;0.52;63.95;96646.81;1817048;77;21253;-56
2020/12/03 11:37:57;;;;;;;20.65;11.73;;;;;;;0.40;64.59;96628.04;1743291;82;21093;-56
2020/12/03 11:40:56;;;;;;;30.92;13.25;;;;;;;0.37;64.90;96629.41;1759824;81;21473;-55
2020/12/03 11:48:56;;;;;;;29.70;15.98;;;;;;;0.72;63.77;96626.22;1732042;82;21057;-55
2020/12/03 11:51:31;;;;;;;34.08;14.70;;;;;;;0.72;63.77;96626.22;1774604;79;21066;-55
2020/12/03 11:54:01;;;;;;;51.05;14.70;;;;;;;0.70;63.74;96631.83;1777617;80;21146;-56
2020/12/03 11:56:30;;;;;;;37.35;14.53;;;;;;;0.67;64.26;96620.42;1773126;80;21344;-55
2020/12/03 11:59:16;;;;;;;21.82;11.57;;;;;;;0.66;63.85;96613.66;1776316;79;21143;-55
2020/12/03 12:01:56;;;;;;;18.77;11.53;;;;;;;0.63;64.59;96609.47;1776433;79;21094;-57
2020/12/03 12:09:36;;;;;;;23.05;12.55;;;;;;;0.49;64.85;96600.97;1832298;77;21200;-54
2020/12/03 12:11:58;;;;;;;30.50;12.50;;;;;;;0.53;64.23;96603.81;1829435;77;21377;-55
2020/12/03 12:14:26;;;;;;;24.72;11.97;;;;;;;0.49;64.27;96603.52;1838329;77;21108;-55
2020/12/03 12:16:54;;;;;;;16.67;10.43;;;;;;;0.47;64.62;96598.88;1826685;77;21600;-55